Time;durP1;ratioP1;P1;durP2;ratioP2;P2;SDS_P1;SDS_P2;PMS_P1;PMS_P2;Temp;Humidity;BMP_temperature;BMP_pressure;BME280_temperature;BME280_humidity;BME280_pressure;Samples;Min_cycle;Max_cycle;Signal;HPM_P1;HPM_P2
2024/04/08 00:01:04;;;;;;;10.27;1.95;;;;;;;6.91;100.00;98943.22;4736927;29;20379;-83
2024/04/08 00:03:30;;;;;;;10.13;1.50;;;;;;;6.92;100.00;98932.53;4754295;30;20047;-83
2024/04/08 00:05:57;;;;;;;11.20;1.60;;;;;;;6.93;100.00;98931.56;4752755;29;20353;-83
2024/04/08 00:08:23;;;;;;;12.52;2.17;;;;;;;6.93;100.00;98935.97;4756406;30;20498;-83
2024/04/08 00:10:49;;;;;;;6.13;1.15;;;;;;;6.94;100.00;98929.75;4764517;29;20473;-82
2024/04/08 00:13:15;;;;;;;9.52;2.55;;;;;;;6.92;100.00;98929.91;4751573;30;20051;-83
2024/04/08 00:15:40;;;;;;;7.15;2.58;;;;;;;6.94;100.00;98930.56;4752087;29;20077;-83
2024/04/08 00:18:06;;;;;;;5.82;1.13;;;;;;;6.98;100.00;98938.13;4781004;29;20052;-83
2024/04/08 00:20:33;;;;;;;18.05;1.40;;;;;;;6.99;100.00;98937.97;4760594;29;20043;-82
2024/04/08 00:23:01;;;;;;;10.05;2.15;;;;;;;6.98;100.00;98938.94;4734665;29;20054;-83
2024/04/08 00:25:27;;;;;;;9.02;1.52;;;;;;;6.98;100.00;98932.88;4768748;29;20043;-82
2024/04/08 00:27:53;;;;;;;7.40;1.35;;;;;;;6.94;100.00;98927.13;4750439;30;20046;-82
2024/04/08 00:30:19;;;;;;;16.05;1.65;;;;;;;6.93;100.00;98926.28;4760809;29;20050;-84
2024/04/08 00:32:44;;;;;;;12.98;2.38;;;;;;;6.93;100.00;98921.03;4753393;29;20529;-84
2024/04/08 00:35:10;;;;;;;11.35;1.60;;;;;;;6.89;100.00;98911.84;4739576;29;20047;-84
2024/04/08 00:37:37;;;;;;;9.13;1.70;;;;;;;6.87;100.00;98915.59;4764045;30;20047;-84
2024/04/08 00:40:03;;;;;;;11.00;1.48;;;;;;;6.87;100.00;98926.09;4760271;29;20035;-84
2024/04/08 00:42:29;;;;;;;14.55;2.40;;;;;;;6.84;100.00;98916.75;4737218;30;20047;-83
2024/04/08 00:44:55;;;;;;;7.65;1.70;;;;;;;6.78;100.00;98926.09;4766387;29;20499;-83
2024/04/08 00:47:21;;;;;;;9.30;1.42;;;;;;;6.77;100.00;98934.13;4759878;30;20054;-81
2024/04/08 00:49:48;;;;;;;9.05;1.77;;;;;;;6.72;100.00;98939.81;4763014;29;20118;-82
2024/04/08 00:52:15;;;;;;;12.73;2.38;;;;;;;6.67;100.00;98935.03;4753427;29;20044;-81
2024/04/08 00:54:41;;;;;;;13.73;1.90;;;;;;;6.62;100.00;98934.69;4737836;29;20126;-81
2024/04/08 00:57:09;;;;;;;7.90;1.50;;;;;;;6.63;100.00;98932.88;4763958;29;20045;-81
2024/04/08 00:59:35;;;;;;;14.95;1.10;;;;;;;6.61;100.00;98927.78;4765169;30;20092;-80
2024/04/08 01:02:04;;;;;;;17.40;1.98;;;;;;;6.67;100.00;98935.03;4774588;30;20054;-82
2024/04/08 01:04:32;;;;;;;16.20;2.10;;;;;;;6.71;100.00;98932.94;4779746;29;20102;-81
2024/04/08 01:06:59;;;;;;;6.88;1.45;;;;;;;6.75;100.00;98931.66;4775532;29;20043;-80
2024/04/08 01:09:25;;;;;;;14.77;2.22;;;;;;;6.76;100.00;98921.94;4766706;30;20039;-83
2024/04/08 01:11:51;;;;;;;12.20;1.65;;;;;;;6.82;100.00;98926.56;4760356;30;20040;-84
2024/04/08 01:14:17;;;;;;;10.68;1.65;;;;;;;6.83;100.00;98926.41;4781809;29;20039;-83
2024/04/08 01:16:45;;;;;;;7.50;1.75;;;;;;;6.79;100.00;98913.75;4749909;30;20043;-83
2024/04/08 01:19:13;;;;;;;15.48;1.95;;;;;;;6.80;100.00;98918.06;4755129;30;20059;-83
2024/04/08 01:21:40;;;;;;;12.50;1.83;;;;;;;6.77;100.00;98913.91;4755381;30;20134;-83
2024/04/08 01:24:07;;;;;;;10.73;1.63;;;;;;;6.78;100.00;98917.38;4769508;29;20493;-83
2024/04/08 01:26:32;;;;;;;10.75;1.77;;;;;;;6.70;100.00;98905.84;4737592;30;20040;-82
2024/04/08 01:28:58;;;;;;;13.40;2.17;;;;;;;6.66;100.00;98912.41;4765677;29;20042;-83
2024/04/08 01:31:24;;;;;;;10.50;1.33;;;;;;;6.63;100.00;98904.00;4749285;30;20047;-85
2024/04/08 01:33:50;;;;;;;16.83;4.18;;;;;;;6.54;100.00;98908.41;4785302;29;20535;-84
2024/04/08 01:36:16;;;;;;;11.80;2.88;;;;;;;6.39;100.00;98903.72;4775953;29;20070;-83
2024/04/08 01:38:41;;;;;;;10.10;2.30;;;;;;;6.28;100.00;98898.72;4759877;29;20043;-83
2024/04/08 01:41:07;;;;;;;10.40;2.85;;;;;;;6.28;100.00;98899.56;4760183;30;20477;-85
2024/04/08 01:43:33;;;;;;;14.55;3.47;;;;;;;6.28;100.00;98896.94;4744671;30;20435;-86
2024/04/08 01:45:59;;;;;;;18.42;3.15;;;;;;;6.28;100.00;98896.09;4737670;30;20050;-86
2024/04/08 01:48:25;;;;;;;14.65;2.55;;;;;;;6.33;100.00;98894.69;4767132;30;20031;-84
2024/04/08 01:50:50;;;;;;;9.45;1.60;;;;;;;6.36;100.00;98887.47;4753248;30;20681;-85
2024/04/08 01:53:16;;;;;;;15.15;2.35;;;;;;;6.38;100.00;98888.97;4751982;29;20058;-85
2024/04/08 01:55:42;;;;;;;10.55;1.65;;;;;;;6.44;100.00;98884.88;4761544;30;20040;-85
2024/04/08 01:58:08;;;;;;;7.68;1.70;;;;;;;6.48;100.00;98877.53;4764468;29;20118;-85
2024/04/08 02:00:33;;;;;;;15.43;1.77;;;;;;;6.52;100.00;98876.22;4768312;29;20043;-83
2024/04/08 02:02:59;;;;;;;14.30;1.98;;;;;;;6.56;100.00;98867.06;4768277;30;20039;-83
2024/04/08 02:05:25;;;;;;;11.32;2.20;;;;;;;6.62;100.00;98871.69;4736601;29;20405;-85
2024/04/08 02:07:51;;;;;;;10.93;1.70;;;;;;;6.64;100.00;98868.91;4762883;29;20447;-85
2024/04/08 02:10:20;;;;;;;8.15;1.77;;;;;;;6.64;100.00;98876.78;4746757;29;20135;-83
2024/04/08 02:12:47;;;;;;;9.95;1.98;;;;;;;6.53;100.00;98873.44;4743114;29;20146;-83
2024/04/08 02:15:13;;;;;;;6.97;1.77;;;;;;;6.40;100.00;98870.44;4774214;29;20111;-83
2024/04/08 02:17:39;;;;;;;11.30;1.90;;;;;;;6.37;100.00;98876.81;4765956;30;20564;-83
2024/04/08 02:20:06;;;;;;;9.48;1.63;;;;;;;6.24;100.00;98864.13;4769186;30;20138;-83
2024/04/08 02:22:32;;;;;;;14.88;1.90;;;;;;;6.14;100.00;98864.22;4725665;30;20039;-83
2024/04/08 02:24:58;;;;;;;9.20;1.58;;;;;;;6.13;100.00;98861.75;4735774;29;20051;-83
2024/04/08 02:27:24;;;;;;;10.48;2.22;;;;;;;6.13;100.00;98857.31;4758293;29;20050;-83
2024/04/08 02:29:51;;;;;;;6.35;1.70;;;;;;;6.17;100.00;98866.53;4739622;29;20410;-86
2024/04/08 02:32:17;;;;;;;12.93;2.13;;;;;;;6.22;100.00;98863.44;4767599;30;20131;-86
2024/04/08 02:34:43;;;;;;;11.32;1.83;;;;;;;6.20;100.00;98866.22;4751394;29;20040;-82
2024/04/08 02:37:10;;;;;;;8.05;1.17;;;;;;;6.17;100.00;98858.66;4757879;30;20051;-84
2024/04/08 02:39:35;;;;;;;11.05;1.88;;;;;;;6.16;100.00;98853.59;4734205;29;20047;-83
2024/04/08 02:42:05;;;;;;;11.45;2.25;;;;;;;6.23;100.00;98851.97;4744945;30;20040;-83
2024/04/08 02:44:35;;;;;;;10.32;1.83;;;;;;;6.31;100.00;98849.41;4765515;29;20043;-86
2024/04/08 02:47:00;;;;;;;11.52;2.05;;;;;;;6.20;100.00;98847.03;4764546;29;20134;-85
2024/04/08 02:49:27;;;;;;;9.73;1.88;;;;;;;6.27;100.00;98848.06;4749608;30;20114;-85
2024/04/08 02:51:55;;;;;;;12.90;2.38;;;;;;;6.27;100.00;98848.06;4750327;30;20047;-86
2024/04/08 02:54:21;;;;;;;11.65;1.90;;;;;;;6.29;100.00;98846.09;4760873;30;20485;-85
2024/04/08 02:56:48;;;;;;;10.25;1.60;;;;;;;6.28;100.00;98852.34;4766792;29;20119;-86
2024/04/08 02:59:17;;;;;;;8.05;1.65;;;;;;;6.32;100.00;98853.66;4765557;30;20048;-84
2024/04/08 03:01:43;;;;;;;7.57;1.70;;;;;;;6.35;100.00;98855.16;4735685;30;20035;-83
2024/04/08 03:04:09;;;;;;;11.52;1.55;;;;;;;6.41;100.00;98848.44;4754085;30;20035;-83
2024/04/08 03:06:35;;;;;;;7.85;1.45;;;;;;;6.48;100.00;98851.28;4757062;30;20076;-84
2024/04/08 03:09:01;;;;;;;6.07;1.10;;;;;;;6.54;100.00;98848.84;4758557;30;20047;-85
2024/04/08 03:11:26;;;;;;;6.55;1.80;;;;;;;6.58;100.00;98850.19;4752714;29;20113;-82
2024/04/08 03:13:52;;;;;;;5.72;1.60;;;;;;;6.63;100.00;98848.88;4752260;30;20047;-81
2024/04/08 03:16:18;;;;;;;11.18;2.25;;;;;;;6.67;100.00;98852.84;4754664;29;20122;-81
2024/04/08 03:18:43;;;;;;;13.57;1.95;;;;;;;6.71;100.00;98854.16;4738974;30;20059;-84
2024/04/08 03:21:09;;;;;;;11.35;2.17;;;;;;;6.76;100.00;98851.06;4767819;29;20043;-84
2024/04/08 03:23:35;;;;;;;10.98;1.98;;;;;;;6.74;100.00;98848.59;4767359;30;20044;-84
2024/04/08 03:26:04;;;;;;;16.58;2.20;;;;;;;6.73;100.00;98840.88;4755250;29;20043;-83
2024/04/08 03:28:30;;;;;;;12.25;2.13;;;;;;;6.65;100.00;98846.91;4773681;29;20047;-83
2024/04/08 03:30:57;;;;;;;9.75;1.90;;;;;;;6.60;100.00;98838.69;4766096;29;20058;-85
2024/04/08 03:33:25;;;;;;;6.95;1.63;;;;;;;6.59;100.00;98835.25;4741316;29;20083;-83
2024/04/08 03:35:51;;;;;;;10.55;2.08;;;;;;;6.60;100.00;98838.69;4767946;30;20039;-83
2024/04/08 03:38:18;;;;;;;14.80;1.60;;;;;;;6.62;100.00;98837.56;4756917;29;20043;-83
2024/04/08 03:40:44;;;;;;;7.20;1.60;;;;;;;6.68;100.00;98839.56;4768193;30;20096;-83
2024/04/08 03:43:10;;;;;;;7.78;1.40;;;;;;;6.73;100.00;98840.88;4768332;29;20039;-84
2024/04/08 03:45:38;;;;;;;8.65;2.45;;;;;;;6.77;100.00;98836.97;4745433;29;20054;-86
2024/04/08 03:48:05;;;;;;;11.98;2.15;;;;;;;6.79;100.00;98835.81;4760118;30;20036;-85
2024/04/08 03:50:34;;;;;;;5.43;2.00;;;;;;;6.81;100.00;98846.16;4756541;30;20051;-85
2024/04/08 03:53:00;;;;;;;10.70;1.90;;;;;;;6.76;100.00;98846.63;4765502;29;20095;-86
2024/04/08 03:55:27;;;;;;;9.88;1.98;;;;;;;6.66;100.00;98840.66;4747750;30;20047;-84
2024/04/08 03:57:53;;;;;;;5.00;1.83;;;;;;;6.53;100.00;98844.56;4765232;30;20052;-84
2024/04/08 04:00:24;;;;;;;6.70;2.20;;;;;;;6.47;100.00;98853.06;4754152;29;20040;-83
2024/04/08 04:02:51;;;;;;;12.70;1.92;;;;;;;6.42;100.00;98848.28;4781116;29;20047;-83
2024/04/08 04:05:20;;;;;;;7.75;1.98;;;;;;;6.46;100.00;98843.56;4756226;29;20054;-85
2024/04/08 04:07:46;;;;;;;12.02;2.03;;;;;;;6.45;100.00;98840.09;4759977;29;20059;-85
2024/04/08 04:10:18;;;;;;;5.15;1.48;;;;;;;6.54;100.00;98851.47;4742172;29;20055;-86
2024/04/08 04:12:44;;;;;;;10.55;2.05;;;;;;;6.58;100.00;98841.47;4757697;30;20710;-85
2024/04/08 04:15:14;;;;;;;7.70;1.95;;;;;;;6.64;100.00;98846.09;4768373;29;20043;-87
2024/04/08 04:17:44;;;;;;;11.90;2.25;;;;;;;6.66;100.00;98845.91;4765243;29;20055;-86
2024/04/08 04:20:11;;;;;;;8.43;2.00;;;;;;;6.67;100.00;98843.13;4754008;30;20047;-86
2024/04/08 04:22:37;;;;;;;8.55;2.33;;;;;;;6.67;100.00;98848.38;4754505;29;20145;-87
2024/04/08 04:25:11;;;;;;;15.65;1.95;;;;;;;6.70;100.00;98845.44;4758077;30;20045;-85
2024/04/08 04:27:43;;;;;;;9.85;1.60;;;;;;;6.70;100.00;98847.28;4770786;29;20039;-86
2024/04/08 04:30:09;;;;;;;5.55;1.27;;;;;;;6.77;100.00;98842.22;4732878;29;20051;-87
2024/04/08 04:32:40;;;;;;;12.07;1.80;;;;;;;6.87;100.00;98855.19;4742658;29;20494;-87
2024/04/08 04:35:06;;;;;;;13.43;2.05;;;;;;;6.87;100.00;98852.56;4756125;30;20055;-86
2024/04/08 04:37:33;;;;;;;11.77;1.85;;;;;;;6.93;100.00;98858.00;4758323;29;20035;-86
2024/04/08 04:39:59;;;;;;;8.27;1.75;;;;;;;6.92;100.00;98855.53;4759014;29;20038;-86
2024/04/08 04:42:50;;;;;;;14.50;2.45;;;;;;;7.00;100.00;98850.31;4741451;29;20059;-86
2024/04/08 04:45:17;;;;;;;9.20;1.65;;;;;;;7.02;100.00;98855.41;4760498;29;20141;-86
2024/04/08 04:47:43;;;;;;;9.93;1.77;;;;;;;7.04;100.00;98854.25;4762173;30;20422;-86
2024/04/08 04:50:09;;;;;;;10.55;2.22;;;;;;;7.05;100.00;98848.03;4761523;30;20043;-88
2024/04/08 04:52:35;;;;;;;13.50;2.75;;;;;;;7.09;100.00;98840.63;4765922;30;20099;-88
2024/04/08 04:55:01;;;;;;;8.82;1.70;;;;;;;7.15;100.00;98836.56;4787544;29;20569;-86
2024/04/08 04:57:26;;;;;;;11.27;2.03;;;;;;;7.14;100.00;98840.97;4761641;29;20043;-85
2024/04/08 04:59:52;;;;;;;6.38;1.55;;;;;;;7.24;100.00;98840.00;4756923;30;20035;-85
2024/04/08 05:02:19;;;;;;;11.65;1.67;;;;;;;7.17;100.00;98824.06;4742112;29;20126;-85
2024/04/08 05:05:10;;;;;;;11.15;2.10;;;;;;;7.22;100.00;98828.81;4748653;29;20132;-87
2024/04/08 05:07:36;;;;;;;8.15;1.90;;;;;;;7.20;100.00;98832.44;4752109;30;20060;-86
2024/04/08 05:10:04;;;;;;;7.25;2.08;;;;;;;7.18;100.00;98830.97;4754129;29;20038;-87
2024/04/08 05:12:41;;;;;;;3.88;1.33;;;;;;;7.22;100.00;98826.19;4752872;30;20052;-84
2024/04/08 05:15:08;;;;;;;13.60;1.88;;;;;;;7.14;100.00;98821.75;4740560;29;20050;-86
2024/04/08 05:17:36;;;;;;;9.25;1.58;;;;;;;7.09;100.00;98818.81;4738451;30;20078;-85
2024/04/08 05:20:03;;;;;;;12.10;1.75;;;;;;;7.05;100.00;98823.56;4776628;29;20055;-83
2024/04/08 05:22:30;;;;;;;7.18;1.58;;;;;;;7.03;100.00;98823.72;4753867;29;20043;-84
2024/04/08 05:24:56;;;;;;;7.65;2.00;;;;;;;6.99;100.00;98818.94;4774140;29;20040;-84
2024/04/08 05:27:22;;;;;;;11.75;2.42;;;;;;;6.96;100.00;98822.69;4770952;29;20385;-86
2024/04/08 05:29:47;;;;;;;10.73;1.67;;;;;;;6.96;100.00;98820.06;4731220;29;20115;-87
2024/04/08 05:32:13;;;;;;;5.47;1.27;;;;;;;7.04;100.00;98827.19;4755701;30;20050;-85
2024/04/08 05:34:39;;;;;;;9.15;2.30;;;;;;;7.09;100.00;98821.44;4773180;29;20035;-84
2024/04/08 05:37:05;;;;;;;10.85;1.45;;;;;;;7.11;100.00;98817.66;4780288;29;20055;-85
2024/04/08 05:39:31;;;;;;;8.50;1.70;;;;;;;7.15;100.00;98818.97;4770489;30;20756;-83
2024/04/08 05:41:57;;;;;;;8.32;2.05;;;;;;;7.17;100.00;98818.78;4751933;29;20039;-84
2024/04/08 05:44:23;;;;;;;9.63;1.55;;;;;;;7.15;100.00;98820.78;4770464;29;20052;-85
2024/04/08 05:46:49;;;;;;;7.15;1.63;;;;;;;7.18;100.00;98823.09;4738213;29;20400;-86
2024/04/08 05:49:14;;;;;;;10.57;1.90;;;;;;;7.18;100.00;98823.88;4754702;29;20043;-84
2024/04/08 05:51:40;;;;;;;10.13;1.75;;;;;;;7.21;100.00;98833.28;4752383;29;20062;-86
2024/04/08 05:54:06;;;;;;;14.02;2.08;;;;;;;7.20;100.00;98826.34;4732372;30;20031;-87
2024/04/08 05:56:32;;;;;;;9.15;1.95;;;;;;;7.20;100.00;98829.81;4759570;29;20043;-87
2024/04/08 05:58:58;;;;;;;8.65;2.20;;;;;;;7.17;100.00;98827.50;4755742;30;20065;-86
2024/04/08 06:01:24;;;;;;;9.88;2.30;;;;;;;7.18;100.00;98825.72;4759645;30;20062;-87
2024/04/08 06:03:50;;;;;;;11.75;2.20;;;;;;;7.22;100.00;98829.66;4761425;30;20695;-88
2024/04/08 06:06:17;;;;;;;10.18;2.05;;;;;;;7.25;100.00;98837.22;4758155;29;20054;-87
2024/04/08 06:08:43;;;;;;;13.70;2.60;;;;;;;7.26;100.00;98838.84;4748415;29;20042;-87
2024/04/08 06:11:09;;;;;;;13.82;2.90;;;;;;;7.28;100.00;98831.63;4766683;30;21887;-84
2024/04/08 06:13:34;;;;;;;7.93;2.00;;;;;;;7.31;100.00;98836.56;4749226;30;20551;-84
2024/04/08 06:16:02;;;;;;;7.93;2.47;;;;;;;7.36;100.00;98838.69;4751643;30;20063;-85
2024/04/08 06:18:27;;;;;;;7.63;2.00;;;;;;;7.38;100.00;98833.28;4739272;30;20052;-85
2024/04/08 06:21:00;;;;;;;9.77;2.15;;;;;;;7.41;100.00;98833.78;4781213;29;20085;-86
2024/04/08 06:23:26;;;;;;;6.93;2.10;;;;;;;7.43;100.00;98844.13;4764128;30;20066;-88
2024/04/08 06:26:03;;;;;;;11.25;2.35;;;;;;;7.49;100.00;98843.47;4761314;29;20422;-87
2024/04/08 06:28:31;;;;;;;8.32;2.53;;;;;;;7.45;100.00;98834.28;4754628;29;20184;-85
2024/04/08 06:30:57;;;;;;;10.25;2.63;;;;;;;7.44;100.00;98841.34;4762717;30;20076;-85
2024/04/08 06:33:23;;;;;;;11.90;2.72;;;;;;;7.45;100.00;98844.78;4763825;29;20032;-84
2024/04/08 06:35:51;;;;;;;12.75;2.70;;;;;;;7.46;100.00;98843.78;4781427;29;20401;-85
2024/04/08 06:38:17;;;;;;;10.23;3.00;;;;;;;7.49;100.00;98842.63;4748565;29;20050;-83
2024/04/08 06:40:43;;;;;;;13.32;2.60;;;;;;;7.47;100.00;98839.38;4758416;30;20406;-82
2024/04/08 06:43:09;;;;;;;13.68;2.90;;;;;;;7.45;100.00;98844.78;4760283;30;20498;-84
2024/04/08 06:45:35;;;;;;;14.15;3.22;;;;;;;7.38;100.00;98839.34;4753432;30;20043;-85
2024/04/08 06:48:02;;;;;;;13.32;3.30;;;;;;;7.35;100.00;98838.84;4740787;29;20450;-83
2024/04/08 06:50:29;;;;;;;11.15;3.05;;;;;;;7.34;100.00;98838.06;4767476;30;20039;-83
2024/04/08 06:52:54;;;;;;;7.68;2.95;;;;;;;7.34;100.00;98842.47;4758559;29;20212;-86
2024/04/08 06:55:20;;;;;;;12.63;2.50;;;;;;;7.39;100.00;98842.81;4755139;29;20121;-87
2024/04/08 06:57:46;;;;;;;7.65;2.70;;;;;;;7.47;100.00;98847.25;4758512;29;20039;-85
2024/04/08 07:00:12;;;;;;;8.70;2.65;;;;;;;7.45;100.00;98842.16;4727275;30;20595;-87
2024/04/08 07:02:39;;;;;;;11.60;2.00;;;;;;;7.46;100.00;98838.53;4768722;29;20122;-85
2024/04/08 07:05:05;;;;;;;18.90;2.55;;;;;;;7.38;100.00;98830.63;4769759;30;20126;-84
2024/04/08 07:07:31;;;;;;;8.38;2.33;;;;;;;7.40;100.00;98831.31;4761891;29;20047;-85
2024/04/08 07:09:57;;;;;;;9.10;1.80;;;;;;;7.39;100.00;98832.31;4765032;30;20112;-84
2024/04/08 07:12:23;;;;;;;10.98;2.28;;;;;;;7.38;100.00;98828.84;4758584;29;20058;-86
2024/04/08 07:14:52;;;;;;;11.77;2.28;;;;;;;7.44;100.00;98824.72;4739557;29;20117;-87
2024/04/08 07:17:20;;;;;;;7.75;1.90;;;;;;;7.41;100.00;98822.44;4755949;29;20043;-87
2024/04/08 07:19:46;;;;;;;10.88;1.83;;;;;;;7.45;100.00;98824.56;4753007;29;20624;-82
2024/04/08 07:22:12;;;;;;;6.13;1.40;;;;;;;7.47;100.00;98823.59;4751466;29;20067;-83
2024/04/08 07:24:56;;;;;;;10.18;2.00;;;;;;;7.55;100.00;98826.19;4753486;29;20074;-89
2024/04/08 07:27:22;;;;;;;7.75;1.75;;;;;;;7.55;100.00;98824.41;4768169;30;20147;-83
2024/04/08 07:29:56;;;;;;;9.45;2.00;;;;;;;7.55;100.00;98808.63;4747295;30;20036;-84
2024/04/08 07:32:23;;;;;;;9.43;1.52;;;;;;;7.43;100.00;98802.06;4780583;29;20047;-83
2024/04/08 07:34:49;;;;;;;7.13;1.30;;;;;;;7.35;100.00;98809.94;4755134;30;20374;-87
2024/04/08 07:37:15;;;;;;;6.03;0.98;;;;;;;7.26;100.00;98806.50;4755877;29;20080;-87
2024/04/08 07:39:41;;;;;;;4.55;1.10;;;;;;;7.16;100.00;98802.22;4762829;30;20110;-87
2024/04/08 07:42:07;;;;;;;5.10;1.30;;;;;;;7.16;100.00;98804.03;4742376;30;20043;-87
2024/04/08 07:44:34;;;;;;;7.90;1.27;;;;;;;7.15;100.00;98797.13;4767849;29;20067;-85
2024/04/08 07:47:00;;;;;;;4.82;1.60;;;;;;;7.13;100.00;98797.31;4744878;30;20051;-86
2024/04/08 07:49:26;;;;;;;7.25;1.52;;;;;;;7.14;100.00;98805.97;4751487;30;20039;-88
2024/04/08 07:51:51;;;;;;;8.98;1.73;;;;;;;7.19;100.00;98806.31;4756667;30;20062;-88
2024/04/08 07:54:17;;;;;;;9.75;1.00;;;;;;;7.22;100.00;98807.78;4771108;30;20039;-89
2024/04/08 07:56:43;;;;;;;3.45;0.70;;;;;;;7.17;100.00;98810.91;4773197;29;20031;-86
2024/04/08 07:59:09;;;;;;;5.53;0.88;;;;;;;7.14;100.00;98805.97;4751854;30;20085;-87
2024/04/08 08:01:34;;;;;;;5.47;0.70;;;;;;;7.12;100.00;98805.34;4754739;30;20052;-81
2024/04/08 08:04:01;;;;;;;5.78;1.10;;;;;;;7.11;100.00;98801.06;4768044;29;20058;-84
2024/04/08 08:06:28;;;;;;;3.65;0.88;;;;;;;7.16;100.00;98801.41;4735717;29;20092;-87
2024/04/08 08:08:54;;;;;;;6.95;0.82;;;;;;;7.20;100.00;98797.44;4773924;30;20043;-86
2024/04/08 08:11:20;;;;;;;4.57;0.93;;;;;;;7.18;100.00;98808.13;4755949;30;20134;-86
2024/04/08 08:13:46;;;;;;;6.95;1.00;;;;;;;7.19;100.00;98801.91;4754889;30;20513;-87
2024/04/08 08:16:11;;;;;;;7.20;0.90;;;;;;;7.18;100.00;98797.59;4758604;29;20500;-85
2024/04/08 08:18:38;;;;;;;5.20;0.77;;;;;;;7.21;100.00;98801.75;4762489;30;20468;-87
2024/04/08 08:21:05;;;;;;;3.28;0.63;;;;;;;7.17;100.00;98801.22;4764178;29;20043;-88
2024/04/08 08:23:31;;;;;;;3.50;0.73;;;;;;;7.14;100.00;98798.09;4773546;29;20107;-85
2024/04/08 08:25:58;;;;;;;4.13;1.00;;;;;;;7.13;100.00;98796.47;4742330;29;20437;-85
2024/04/08 08:28:24;;;;;;;12.23;1.60;;;;;;;7.12;100.00;98800.91;4758973;30;20039;-84
2024/04/08 08:30:52;;;;;;;3.65;1.30;;;;;;;7.11;100.00;98799.25;4769572;29;20034;-87
2024/04/08 08:33:20;;;;;;;3.78;0.73;;;;;;;7.11;100.00;98795.81;4743143;30;20043;-88
2024/04/08 08:35:46;;;;;;;6.35;0.98;;;;;;;7.10;100.00;98797.63;4765330;29;20058;-87
2024/04/08 08:38:12;;;;;;;4.28;1.00;;;;;;;7.09;100.00;98798.59;4730673;30;20048;-90
2024/04/08 08:40:43;;;;;;;4.10;0.85;;;;;;;7.09;100.00;98795.16;4768800;30;20412;-87
2024/04/08 08:43:08;;;;;;;4.07;1.10;;;;;;;7.04;100.00;98788.56;4764222;29;20096;-87
2024/04/08 08:45:41;;;;;;;5.57;1.23;;;;;;;7.04;100.00;98793.81;4747112;29;20449;-86
2024/04/08 08:48:08;;;;;;;6.40;2.10;;;;;;;7.14;100.00;98806.81;4746576;30;20035;-86
2024/04/08 08:50:41;;;;;;;10.90;1.95;;;;;;;7.10;100.00;98802.88;4756355;29;20500;-91
2024/04/08 08:53:09;;;;;;;8.00;1.73;;;;;;;7.11;100.00;98798.44;4766216;30;20067;-89
2024/04/08 08:55:36;;;;;;;4.35;1.00;;;;;;;7.06;100.00;98807.63;4740073;30;20066;-89
2024/04/08 08:58:05;;;;;;;6.28;1.88;;;;;;;7.01;100.00;98802.03;4760131;30;20047;-82
2024/04/08 09:00:37;;;;;;;9.93;1.80;;;;;;;7.01;100.00;98801.19;4760590;30;20040;-88
2024/04/08 09:03:04;;;;;;;4.38;1.27;;;;;;;7.03;100.00;98810.59;4769591;29;20740;-87
2024/04/08 09:05:30;;;;;;;3.30;1.05;;;;;;;7.05;100.00;98806.00;4767341;29;20039;-85
2024/04/08 09:07:59;;;;;;;5.25;1.10;;;;;;;7.13;100.00;98807.81;4737030;30;20118;-86
2024/04/08 09:10:46;;;;;;;4.00;0.80;;;;;;;7.16;100.00;98807.47;4785805;29;20785;-88
2024/04/08 09:13:23;;;;;;;8.80;1.10;;;;;;;7.05;100.00;98792.88;4764750;30;20050;-87
2024/04/08 09:15:52;;;;;;;6.55;0.98;;;;;;;7.02;100.00;98794.97;4757113;29;20055;-88
2024/04/08 09:18:23;;;;;;;3.92;0.70;;;;;;;7.04;100.00;98793.03;4777578;29;20059;-87
2024/04/08 09:20:49;;;;;;;4.65;1.13;;;;;;;7.04;100.00;98793.81;4743472;30;20039;-86
2024/04/08 09:23:15;;;;;;;7.00;0.93;;;;;;;7.04;100.00;98796.44;4769848;29;20075;-84
2024/04/08 09:25:42;;;;;;;5.13;1.00;;;;;;;7.01;100.00;98785.44;4754716;30;20100;-87
2024/04/08 09:28:09;;;;;;;5.30;1.00;;;;;;;6.99;100.00;98798.72;4787697;29;20050;-83
2024/04/08 09:30:35;;;;;;;5.85;0.80;;;;;;;6.94;100.00;98782.66;4749671;29;20043;-90
2024/04/08 09:33:08;;;;;;;5.93;0.98;;;;;;;6.92;100.00;98777.56;4749931;30;20110;-87
2024/04/08 09:35:42;;;;;;;5.47;0.85;;;;;;;6.97;100.00;98779.72;4768032;29;20531;-88
2024/04/08 09:38:10;;;;;;;2.58;0.95;;;;;;;6.99;100.00;98777.72;4754169;30;20051;-89
2024/04/08 09:40:39;;;;;;;6.68;0.80;;;;;;;7.00;100.00;98782.00;4752300;29;20054;-86
2024/04/08 09:43:07;;;;;;;6.40;1.27;;;;;;;7.01;100.00;98778.38;4753126;30;20043;-88
2024/04/08 09:45:36;;;;;;;5.88;1.15;;;;;;;7.04;100.00;98780.69;4768490;30;20186;-88
2024/04/08 09:48:02;;;;;;;4.35;1.10;;;;;;;7.05;100.00;98766.59;4762978;30;20673;-89
2024/04/08 09:50:29;;;;;;;3.53;1.10;;;;;;;7.11;100.00;98778.25;4763207;30;20523;-85
2024/04/08 09:53:02;;;;;;;7.10;1.17;;;;;;;7.05;100.00;98761.34;4781945;29;20039;-85
2024/04/08 09:55:43;;;;;;;4.88;1.20;;;;;;;7.05;100.00;98765.75;4764187;30;20062;-87
2024/04/08 09:58:24;;;;;;;5.47;0.77;;;;;;;7.06;100.00;98762.13;4755239;30;20130;-91
2024/04/08 10:00:55;;;;;;;7.45;1.58;;;;;;;7.17;100.00;98769.69;4752750;30;20493;-88
2024/04/08 10:03:28;;;;;;;5.20;0.88;;;;;;;7.23;100.00;98762.16;4759135;29;20470;-86
2024/04/08 10:06:00;;;;;;;5.03;0.90;;;;;;;7.21;100.00;98762.31;4762217;29;20039;-86
2024/04/08 10:08:29;;;;;;;6.38;1.08;;;;;;;7.18;100.00;98762.66;4761829;29;20051;-91
2024/04/08 10:11:05;;;;;;;5.40;1.13;;;;;;;7.18;100.00;98770.53;4739517;29;20032;-88
2024/04/08 10:13:59;;;;;;;9.52;1.25;;;;;;;7.16;100.00;98761.97;4758963;29;20058;-86
2024/04/08 10:16:35;;;;;;;3.35;0.80;;;;;;;7.11;100.00;98774.78;4747974;29;20047;-87
2024/04/08 10:19:13;;;;;;;4.22;0.90;;;;;;;7.09;100.00;98776.78;4747562;30;20138;-85
2024/04/08 10:21:45;;;;;;;4.57;1.00;;;;;;;7.08;100.00;98783.81;4755020;30;20689;-85
2024/04/08 10:24:41;;;;;;;6.00;0.88;;;;;;;7.15;100.00;98776.13;4742586;30;20124;-86
2024/04/08 10:27:24;;;;;;;3.03;0.80;;;;;;;7.10;100.00;98773.97;4760709;30;20074;-88
2024/04/08 10:30:05;;;;;;;4.82;1.08;;;;;;;7.06;100.00;98777.91;4739586;29;20493;-88
2024/04/08 10:32:45;;;;;;;6.10;1.23;;;;;;;7.07;100.00;98774.31;4766669;30;20139;-91
2024/04/08 10:35:23;;;;;;;10.10;2.70;;;;;;;7.03;100.00;98765.09;4779918;29;20040;-91
2024/04/08 10:42:21;;;;;;;4.07;1.30;;;;;;;7.01;100.00;98754.75;4731931;30;20106;-89
2024/04/08 10:45:54;;;;;;;3.70;0.60;;;;;;;7.00;100.00;98758.38;4724864;30;20518;-86
2024/04/08 10:48:31;;;;;;;4.03;0.82;;;;;;;6.99;100.00;98759.34;4754678;29;20040;-89
2024/04/08 10:51:56;;;;;;;7.00;1.52;;;;;;;6.99;100.00;98750.66;4756131;30;20047;-90
2024/04/08 10:55:06;;;;;;;5.30;1.25;;;;;;;7.11;100.00;98759.00;4754878;29;20043;-89
2024/04/08 10:58:01;;;;;;;3.47;0.95;;;;;;;7.04;100.00;98746.53;4735784;30;20043;-86
2024/04/08 11:01:04;;;;;;;3.33;0.85;;;;;;;7.02;100.00;98743.28;4759540;30;20047;-88
2024/04/08 11:03:49;;;;;;;3.22;0.77;;;;;;;7.04;100.00;98732.59;4729833;30;20039;-88
2024/04/08 11:06:17;;;;;;;6.03;1.40;;;;;;;6.98;100.00;98735.84;4731643;29;20032;-87
2024/04/08 11:09:28;;;;;;;3.60;1.35;;;;;;;7.05;100.00;98732.44;4763439;29;20072;-89
2024/04/08 11:12:44;;;;;;;5.82;1.60;;;;;;;7.13;100.00;98723.72;4748506;30;20073;-90
2024/04/08 11:15:20;;;;;;;2.85;1.15;;;;;;;7.12;100.00;98732.56;4766967;30;20039;-91
2024/04/08 11:18:24;;;;;;;6.07;1.27;;;;;;;7.09;100.00;98734.72;4751694;29;20057;-89
2024/04/08 11:21:01;;;;;;;9.35;1.58;;;;;;;7.03;100.00;98726.50;4774892;30;20035;-88
2024/04/08 11:23:47;;;;;;;4.07;1.02;;;;;;;7.15;100.00;98741.97;4770143;30;20142;-91
2024/04/08 11:26:21;;;;;;;7.88;2.40;;;;;;;7.05;100.00;98737.69;4769341;29;20046;-87
2024/04/08 11:28:51;;;;;;;3.33;1.33;;;;;;;7.11;100.00;98724.84;4764748;30;20050;-88
2024/04/08 11:31:24;;;;;;;7.13;1.38;;;;;;;7.04;100.00;98728.16;4744392;29;20075;-89
2024/04/08 11:33:56;;;;;;;3.67;1.23;;;;;;;7.04;100.00;98724.72;4775489;30;20033;-85
2024/04/08 11:36:26;;;;;;;5.22;1.15;;;;;;;7.02;100.00;98724.88;4772870;29;20568;-90
2024/04/08 11:39:01;;;;;;;4.53;1.05;;;;;;;6.97;100.00;98732.44;4778140;30;20827;-88
2024/04/08 11:41:31;;;;;;;6.90;1.38;;;;;;;6.95;100.00;98735.22;4762184;29;20040;-89
2024/04/08 11:43:57;;;;;;;3.95;0.68;;;;;;;6.92;100.00;98732.09;4771364;30;20032;-84